sensor_id;sensor_type;location;lat;lon;timestamp;P1;durP1;ratioP1;P2;durP2;ratioP2
7843;SDS011;3967;48.702;9.326;2024-03-22T00:00:14;13.93;;;10.93;;
7843;SDS011;3967;48.702;9.326;2024-03-22T00:02:40;14.17;;;11.13;;
7843;SDS011;3967;48.702;9.326;2024-03-22T00:05:06;17.43;;;10.90;;
7843;SDS011;3967;48.702;9.326;2024-03-22T00:07:31;12.93;;;10.70;;
7843;SDS011;3967;48.702;9.326;2024-03-22T00:09:57;13.47;;;11.33;;
7843;SDS011;3967;48.702;9.326;2024-03-22T00:12:23;14.27;;;11.40;;
7843;SDS011;3967;48.702;9.326;2024-03-22T00:14:50;13.90;;;11.47;;
7843;SDS011;3967;48.702;9.326;2024-03-22T00:17:19;12.50;;;10.37;;
7843;SDS011;3967;48.702;9.326;2024-03-22T00:19:46;16.53;;;11.97;;
7843;SDS011;3967;48.702;9.326;2024-03-22T00:22:11;14.37;;;10.90;;
7843;SDS011;3967;48.702;9.326;2024-03-22T00:24:37;14.10;;;11.57;;
7843;SDS011;3967;48.702;9.326;2024-03-22T00:27:03;15.30;;;11.07;;
7843;SDS011;3967;48.702;9.326;2024-03-22T00:29:29;12.73;;;10.83;;
7843;SDS011;3967;48.702;9.326;2024-03-22T00:31:55;16.27;;;10.70;;
7843;SDS011;3967;48.702;9.326;2024-03-22T00:34:20;16.40;;;12.47;;
7843;SDS011;3967;48.702;9.326;2024-03-22T00:36:46;15.53;;;11.80;;
7843;SDS011;3967;48.702;9.326;2024-03-22T00:39:12;16.87;;;12.00;;
7843;SDS011;3967;48.702;9.326;2024-03-22T00:41:38;16.90;;;11.83;;
7843;SDS011;3967;48.702;9.326;2024-03-22T00:44:04;14.90;;;11.47;;
7843;SDS011;3967;48.702;9.326;2024-03-22T00:46:30;14.90;;;11.83;;
7843;SDS011;3967;48.702;9.326;2024-03-22T00:48:56;16.63;;;11.53;;
7843;SDS011;3967;48.702;9.326;2024-03-22T00:51:25;15.43;;;12.40;;
7843;SDS011;3967;48.702;9.326;2024-03-22T00:53:51;17.93;;;12.97;;
7843;SDS011;3967;48.702;9.326;2024-03-22T00:56:17;16.47;;;12.30;;
7843;SDS011;3967;48.702;9.326;2024-03-22T00:58:43;19.47;;;13.33;;
7843;SDS011;3967;48.702;9.326;2024-03-22T01:01:09;15.00;;;10.70;;
7843;SDS011;3967;48.702;9.326;2024-03-22T01:03:35;15.20;;;11.10;;
7843;SDS011;3967;48.702;9.326;2024-03-22T01:06:01;15.47;;;12.03;;
7843;SDS011;3967;48.702;9.326;2024-03-22T01:08:27;14.07;;;11.97;;
7843;SDS011;3967;48.702;9.326;2024-03-22T01:10:53;16.47;;;12.13;;
7843;SDS011;3967;48.702;9.326;2024-03-22T01:13:19;15.30;;;11.57;;
7843;SDS011;3967;48.702;9.326;2024-03-22T01:15:45;16.33;;;11.10;;
7843;SDS011;3967;48.702;9.326;2024-03-22T01:18:13;15.03;;;11.13;;
7843;SDS011;3967;48.702;9.326;2024-03-22T01:20:39;14.10;;;10.80;;
7843;SDS011;3967;48.702;9.326;2024-03-22T01:23:05;12.20;;;10.07;;
7843;SDS011;3967;48.702;9.326;2024-03-22T01:25:30;11.70;;;9.87;;
7843;SDS011;3967;48.702;9.326;2024-03-22T01:27:56;12.53;;;10.60;;
7843;SDS011;3967;48.702;9.326;2024-03-22T01:30:22;15.43;;;10.53;;
7843;SDS011;3967;48.702;9.326;2024-03-22T01:32:48;19.17;;;10.10;;
7843;SDS011;3967;48.702;9.326;2024-03-22T01:35:14;14.77;;;10.47;;
7843;SDS011;3967;48.702;9.326;2024-03-22T01:37:39;16.17;;;10.67;;
7843;SDS011;3967;48.702;9.326;2024-03-22T01:40:07;14.13;;;10.47;;
7843;SDS011;3967;48.702;9.326;2024-03-22T01:42:33;16.87;;;11.80;;
7843;SDS011;3967;48.702;9.326;2024-03-22T01:44:59;15.10;;;11.60;;
7843;SDS011;3967;48.702;9.326;2024-03-22T01:47:25;15.97;;;10.80;;
7843;SDS011;3967;48.702;9.326;2024-03-22T01:49:52;15.50;;;10.53;;
7843;SDS011;3967;48.702;9.326;2024-03-22T01:52:20;16.47;;;11.20;;
7843;SDS011;3967;48.702;9.326;2024-03-22T01:54:45;17.93;;;11.83;;
7843;SDS011;3967;48.702;9.326;2024-03-22T01:57:11;15.90;;;10.67;;
7843;SDS011;3967;48.702;9.326;2024-03-22T01:59:37;16.53;;;11.63;;
7843;SDS011;3967;48.702;9.326;2024-03-22T02:02:04;16.00;;;12.43;;
7843;SDS011;3967;48.702;9.326;2024-03-22T02:04:30;13.83;;;11.37;;
7843;SDS011;3967;48.702;9.326;2024-03-22T02:06:56;16.13;;;11.20;;
7843;SDS011;3967;48.702;9.326;2024-03-22T02:09:22;13.73;;;11.03;;
7843;SDS011;3967;48.702;9.326;2024-03-22T02:11:47;16.17;;;12.10;;
7843;SDS011;3967;48.702;9.326;2024-03-22T02:14:14;14.63;;;11.57;;
7843;SDS011;3967;48.702;9.326;2024-03-22T02:16:40;16.07;;;11.33;;
7843;SDS011;3967;48.702;9.326;2024-03-22T02:19:06;15.10;;;12.13;;
7843;SDS011;3967;48.702;9.326;2024-03-22T02:21:32;19.43;;;11.83;;
7843;SDS011;3967;48.702;9.326;2024-03-22T02:23:58;14.07;;;10.77;;
7843;SDS011;3967;48.702;9.326;2024-03-22T02:26:24;12.83;;;10.20;;
7843;SDS011;3967;48.702;9.326;2024-03-22T02:28:50;14.47;;;11.00;;
7843;SDS011;3967;48.702;9.326;2024-03-22T02:31:15;13.93;;;11.13;;
7843;SDS011;3967;48.702;9.326;2024-03-22T02:33:41;14.53;;;10.47;;
7843;SDS011;3967;48.702;9.326;2024-03-22T02:36:08;15.50;;;11.80;;
7843;SDS011;3967;48.702;9.326;2024-03-22T02:38:34;15.33;;;11.40;;
7843;SDS011;3967;48.702;9.326;2024-03-22T02:41:00;14.87;;;11.07;;
7843;SDS011;3967;48.702;9.326;2024-03-22T02:43:26;14.97;;;11.30;;
7843;SDS011;3967;48.702;9.326;2024-03-22T02:45:51;15.83;;;11.37;;
7843;SDS011;3967;48.702;9.326;2024-03-22T02:48:17;14.13;;;11.93;;
7843;SDS011;3967;48.702;9.326;2024-03-22T02:50:43;19.57;;;12.50;;
7843;SDS011;3967;48.702;9.326;2024-03-22T02:53:09;15.33;;;11.47;;
7843;SDS011;3967;48.702;9.326;2024-03-22T02:55:41;15.27;;;10.83;;
7843;SDS011;3967;48.702;9.326;2024-03-22T02:58:07;13.20;;;10.90;;
7843;SDS011;3967;48.702;9.326;2024-03-22T03:00:38;15.20;;;10.87;;
7843;SDS011;3967;48.702;9.326;2024-03-22T03:03:07;18.40;;;13.00;;
7843;SDS011;3967;48.702;9.326;2024-03-22T03:05:33;15.80;;;11.50;;
7843;SDS011;3967;48.702;9.326;2024-03-22T03:08:00;15.97;;;11.73;;
7843;SDS011;3967;48.702;9.326;2024-03-22T03:10:26;15.83;;;11.03;;
7843;SDS011;3967;48.702;9.326;2024-03-22T03:12:54;13.63;;;10.97;;
7843;SDS011;3967;48.702;9.326;2024-03-22T03:15:20;16.57;;;11.33;;
7843;SDS011;3967;48.702;9.326;2024-03-22T03:17:45;13.80;;;10.93;;
7843;SDS011;3967;48.702;9.326;2024-03-22T03:20:11;18.53;;;12.67;;
7843;SDS011;3967;48.702;9.326;2024-03-22T03:22:39;15.43;;;11.70;;
7843;SDS011;3967;48.702;9.326;2024-03-22T03:25:05;17.83;;;12.80;;
7843;SDS011;3967;48.702;9.326;2024-03-22T03:27:32;15.50;;;11.93;;
7843;SDS011;3967;48.702;9.326;2024-03-22T03:29:58;17.47;;;11.33;;
7843;SDS011;3967;48.702;9.326;2024-03-22T03:32:24;14.30;;;11.80;;
7843;SDS011;3967;48.702;9.326;2024-03-22T03:34:50;17.10;;;12.03;;
7843;SDS011;3967;48.702;9.326;2024-03-22T03:37:16;17.77;;;12.77;;
7843;SDS011;3967;48.702;9.326;2024-03-22T03:39:42;18.63;;;11.60;;
7843;SDS011;3967;48.702;9.326;2024-03-22T03:42:08;14.47;;;11.30;;
7843;SDS011;3967;48.702;9.326;2024-03-22T03:44:34;15.20;;;11.37;;
7843;SDS011;3967;48.702;9.326;2024-03-22T03:47:00;14.77;;;11.40;;
7843;SDS011;3967;48.702;9.326;2024-03-22T03:49:26;17.63;;;12.33;;
7843;SDS011;3967;48.702;9.326;2024-03-22T03:51:52;15.80;;;11.30;;
7843;SDS011;3967;48.702;9.326;2024-03-22T03:54:18;15.10;;;11.70;;
7843;SDS011;3967;48.702;9.326;2024-03-22T03:56:44;15.30;;;11.30;;
7843;SDS011;3967;48.702;9.326;2024-03-22T03:59:10;15.30;;;11.30;;
7843;SDS011;3967;48.702;9.326;2024-03-22T04:01:36;14.87;;;11.87;;
7843;SDS011;3967;48.702;9.326;2024-03-22T04:04:02;14.47;;;11.63;;
7843;SDS011;3967;48.702;9.326;2024-03-22T04:06:28;13.80;;;10.83;;
7843;SDS011;3967;48.702;9.326;2024-03-22T04:08:54;17.80;;;12.27;;
7843;SDS011;3967;48.702;9.326;2024-03-22T04:11:20;14.47;;;11.73;;
7843;SDS011;3967;48.702;9.326;2024-03-22T04:13:46;15.63;;;11.80;;
7843;SDS011;3967;48.702;9.326;2024-03-22T04:16:12;17.10;;;11.93;;
7843;SDS011;3967;48.702;9.326;2024-03-22T04:18:38;18.50;;;11.77;;
7843;SDS011;3967;48.702;9.326;2024-03-22T04:21:04;19.60;;;12.50;;
7843;SDS011;3967;48.702;9.326;2024-03-22T04:23:30;14.20;;;11.10;;
7843;SDS011;3967;48.702;9.326;2024-03-22T04:25:57;15.27;;;11.13;;
7843;SDS011;3967;48.702;9.326;2024-03-22T04:28:24;14.77;;;12.00;;
7843;SDS011;3967;48.702;9.326;2024-03-22T04:30:55;16.30;;;11.20;;
7843;SDS011;3967;48.702;9.326;2024-03-22T04:33:22;15.00;;;11.43;;
7843;SDS011;3967;48.702;9.326;2024-03-22T04:35:48;14.33;;;10.87;;
7843;SDS011;3967;48.702;9.326;2024-03-22T04:38:13;15.77;;;11.00;;
7843;SDS011;3967;48.702;9.326;2024-03-22T04:40:39;16.37;;;11.70;;
7843;SDS011;3967;48.702;9.326;2024-03-22T04:43:06;14.07;;;11.67;;
7843;SDS011;3967;48.702;9.326;2024-03-22T04:45:33;15.47;;;11.90;;
7843;SDS011;3967;48.702;9.326;2024-03-22T04:48:01;15.10;;;11.80;;
7843;SDS011;3967;48.702;9.326;2024-03-22T04:50:27;16.83;;;12.00;;
7843;SDS011;3967;48.702;9.326;2024-03-22T04:52:53;19.30;;;12.10;;
7843;SDS011;3967;48.702;9.326;2024-03-22T04:55:19;14.33;;;11.17;;
7843;SDS011;3967;48.702;9.326;2024-03-22T04:57:45;17.20;;;10.93;;
7843;SDS011;3967;48.702;9.326;2024-03-22T05:00:11;18.40;;;11.83;;
7843;SDS011;3967;48.702;9.326;2024-03-22T05:02:37;15.63;;;12.03;;
7843;SDS011;3967;48.702;9.326;2024-03-22T05:05:03;14.00;;;11.37;;
7843;SDS011;3967;48.702;9.326;2024-03-22T05:07:29;13.90;;;10.87;;
7843;SDS011;3967;48.702;9.326;2024-03-22T05:09:55;13.87;;;10.97;;
7843;SDS011;3967;48.702;9.326;2024-03-22T05:12:21;15.87;;;11.30;;
7843;SDS011;3967;48.702;9.326;2024-03-22T05:14:47;18.03;;;11.03;;
7843;SDS011;3967;48.702;9.326;2024-03-22T05:17:13;14.40;;;10.27;;
7843;SDS011;3967;48.702;9.326;2024-03-22T05:19:39;14.67;;;11.57;;
7843;SDS011;3967;48.702;9.326;2024-03-22T05:22:04;15.87;;;11.40;;
7843;SDS011;3967;48.702;9.326;2024-03-22T05:24:31;15.83;;;11.17;;
7843;SDS011;3967;48.702;9.326;2024-03-22T05:26:57;14.70;;;11.53;;
7843;SDS011;3967;48.702;9.326;2024-03-22T05:29:23;15.73;;;11.20;;
7843;SDS011;3967;48.702;9.326;2024-03-22T05:31:49;19.50;;;11.67;;
7843;SDS011;3967;48.702;9.326;2024-03-22T05:34:17;18.97;;;11.80;;
7843;SDS011;3967;48.702;9.326;2024-03-22T05:36:44;13.83;;;11.20;;
7843;SDS011;3967;48.702;9.326;2024-03-22T05:39:10;12.03;;;9.90;;
7843;SDS011;3967;48.702;9.326;2024-03-22T05:41:37;18.20;;;11.83;;
7843;SDS011;3967;48.702;9.326;2024-03-22T05:44:03;15.20;;;11.03;;
7843;SDS011;3967;48.702;9.326;2024-03-22T05:46:29;14.07;;;10.60;;
7843;SDS011;3967;48.702;9.326;2024-03-22T05:48:56;19.57;;;12.53;;
7843;SDS011;3967;48.702;9.326;2024-03-22T05:51:24;18.57;;;11.73;;
7843;SDS011;3967;48.702;9.326;2024-03-22T05:53:50;13.87;;;10.87;;
7843;SDS011;3967;48.702;9.326;2024-03-22T05:56:16;17.40;;;12.50;;
7843;SDS011;3967;48.702;9.326;2024-03-22T05:58:42;17.33;;;11.43;;
7843;SDS011;3967;48.702;9.326;2024-03-22T06:01:07;17.43;;;11.80;;
7843;SDS011;3967;48.702;9.326;2024-03-22T06:03:33;14.53;;;11.23;;
7843;SDS011;3967;48.702;9.326;2024-03-22T06:05:59;15.80;;;11.93;;
7843;SDS011;3967;48.702;9.326;2024-03-22T06:08:25;16.70;;;11.53;;
7843;SDS011;3967;48.702;9.326;2024-03-22T06:10:55;19.03;;;11.90;;
7843;SDS011;3967;48.702;9.326;2024-03-22T06:13:21;19.23;;;12.60;;
7843;SDS011;3967;48.702;9.326;2024-03-22T06:15:50;18.90;;;12.80;;
7843;SDS011;3967;48.702;9.326;2024-03-22T06:18:16;19.17;;;13.70;;
7843;SDS011;3967;48.702;9.326;2024-03-22T06:20:42;16.83;;;13.13;;
7843;SDS011;3967;48.702;9.326;2024-03-22T06:23:08;21.03;;;13.70;;
7843;SDS011;3967;48.702;9.326;2024-03-22T06:25:34;19.67;;;13.80;;
7843;SDS011;3967;48.702;9.326;2024-03-22T06:28:00;18.37;;;13.30;;
7843;SDS011;3967;48.702;9.326;2024-03-22T06:30:26;18.20;;;12.80;;
7843;SDS011;3967;48.702;9.326;2024-03-22T06:32:55;15.90;;;11.97;;
7843;SDS011;3967;48.702;9.326;2024-03-22T06:35:21;17.33;;;12.57;;
7843;SDS011;3967;48.702;9.326;2024-03-22T06:37:47;15.43;;;12.63;;
7843;SDS011;3967;48.702;9.326;2024-03-22T06:40:14;16.37;;;11.97;;
7843;SDS011;3967;48.702;9.326;2024-03-22T06:42:40;17.47;;;11.97;;
7843;SDS011;3967;48.702;9.326;2024-03-22T06:45:06;16.23;;;11.37;;
7843;SDS011;3967;48.702;9.326;2024-03-22T06:47:32;15.37;;;11.87;;
7843;SDS011;3967;48.702;9.326;2024-03-22T06:49:58;14.30;;;11.20;;
7843;SDS011;3967;48.702;9.326;2024-03-22T06:52:24;14.50;;;11.37;;
7843;SDS011;3967;48.702;9.326;2024-03-22T06:54:50;15.30;;;11.10;;
7843;SDS011;3967;48.702;9.326;2024-03-22T06:57:16;13.60;;;11.27;;
7843;SDS011;3967;48.702;9.326;2024-03-22T06:59:41;18.67;;;12.70;;
7843;SDS011;3967;48.702;9.326;2024-03-22T07:02:07;13.53;;;11.37;;
7843;SDS011;3967;48.702;9.326;2024-03-22T07:04:34;14.93;;;11.73;;
7843;SDS011;3967;48.702;9.326;2024-03-22T07:07:01;15.47;;;11.43;;
7843;SDS011;3967;48.702;9.326;2024-03-22T07:09:26;13.13;;;10.73;;
7843;SDS011;3967;48.702;9.326;2024-03-22T07:11:55;13.77;;;11.13;;
7843;SDS011;3967;48.702;9.326;2024-03-22T07:14:20;13.50;;;10.87;;
7843;SDS011;3967;48.702;9.326;2024-03-22T07:16:49;14.03;;;11.07;;
7843;SDS011;3967;48.702;9.326;2024-03-22T07:19:16;14.40;;;10.53;;
7843;SDS011;3967;48.702;9.326;2024-03-22T07:21:41;13.93;;;10.10;;
7843;SDS011;3967;48.702;9.326;2024-03-22T07:24:07;13.00;;;10.17;;
7843;SDS011;3967;48.702;9.326;2024-03-22T07:26:33;14.00;;;11.00;;
7843;SDS011;3967;48.702;9.326;2024-03-22T07:28:59;13.27;;;10.13;;
7843;SDS011;3967;48.702;9.326;2024-03-22T07:31:24;15.27;;;10.20;;
7843;SDS011;3967;48.702;9.326;2024-03-22T07:33:50;12.27;;;9.87;;
7843;SDS011;3967;48.702;9.326;2024-03-22T07:36:18;17.13;;;11.07;;
7843;SDS011;3967;48.702;9.326;2024-03-22T07:38:44;12.77;;;10.47;;
7843;SDS011;3967;48.702;9.326;2024-03-22T07:41:10;11.47;;;9.40;;
7843;SDS011;3967;48.702;9.326;2024-03-22T07:43:36;13.97;;;9.93;;
7843;SDS011;3967;48.702;9.326;2024-03-22T07:46:02;18.93;;;10.17;;
7843;SDS011;3967;48.702;9.326;2024-03-22T07:48:27;12.77;;;9.50;;
7843;SDS011;3967;48.702;9.326;2024-03-22T07:50:59;12.33;;;10.57;;
7843;SDS011;3967;48.702;9.326;2024-03-22T07:53:26;12.63;;;10.30;;
7843;SDS011;3967;48.702;9.326;2024-03-22T07:55:52;12.33;;;10.03;;
7843;SDS011;3967;48.702;9.326;2024-03-22T07:58:19;13.70;;;9.60;;
7843;SDS011;3967;48.702;9.326;2024-03-22T08:00:45;11.20;;;9.00;;
7843;SDS011;3967;48.702;9.326;2024-03-22T08:03:15;14.80;;;9.60;;
7843;SDS011;3967;48.702;9.326;2024-03-22T08:05:41;15.70;;;9.83;;
7843;SDS011;3967;48.702;9.326;2024-03-22T08:08:07;13.57;;;10.73;;
7843;SDS011;3967;48.702;9.326;2024-03-22T08:10:33;11.70;;;9.63;;
7843;SDS011;3967;48.702;9.326;2024-03-22T08:12:59;12.83;;;9.83;;
7843;SDS011;3967;48.702;9.326;2024-03-22T08:15:29;12.27;;;9.60;;
7843;SDS011;3967;48.702;9.326;2024-03-22T08:17:55;13.23;;;9.63;;
7843;SDS011;3967;48.702;9.326;2024-03-22T08:20:23;13.17;;;9.47;;
7843;SDS011;3967;48.702;9.326;2024-03-22T08:22:49;12.50;;;8.87;;
7843;SDS011;3967;48.702;9.326;2024-03-22T08:25:15;13.63;;;9.40;;
7843;SDS011;3967;48.702;9.326;2024-03-22T08:27:43;10.53;;;9.27;;
7843;SDS011;3967;48.702;9.326;2024-03-22T08:30:10;13.13;;;9.83;;
7843;SDS011;3967;48.702;9.326;2024-03-22T08:32:36;13.70;;;9.13;;
7843;SDS011;3967;48.702;9.326;2024-03-22T08:35:02;14.03;;;8.53;;
7843;SDS011;3967;48.702;9.326;2024-03-22T08:37:29;12.30;;;9.07;;
7843;SDS011;3967;48.702;9.326;2024-03-22T08:39:55;12.40;;;8.93;;
7843;SDS011;3967;48.702;9.326;2024-03-22T08:42:21;13.47;;;9.63;;
7843;SDS011;3967;48.702;9.326;2024-03-22T08:44:47;13.10;;;9.30;;
7843;SDS011;3967;48.702;9.326;2024-03-22T08:47:13;11.03;;;9.00;;
7843;SDS011;3967;48.702;9.326;2024-03-22T08:49:39;10.87;;;9.60;;
7843;SDS011;3967;48.702;9.326;2024-03-22T08:52:06;11.07;;;8.57;;
7843;SDS011;3967;48.702;9.326;2024-03-22T08:54:32;12.20;;;9.13;;
7843;SDS011;3967;48.702;9.326;2024-03-22T08:56:59;9.63;;;8.30;;
7843;SDS011;3967;48.702;9.326;2024-03-22T08:59:25;15.10;;;8.10;;
7843;SDS011;3967;48.702;9.326;2024-03-22T09:01:51;9.97;;;7.67;;
7843;SDS011;3967;48.702;9.326;2024-03-22T09:04:17;10.67;;;8.20;;
7843;SDS011;3967;48.702;9.326;2024-03-22T09:06:43;12.13;;;8.33;;
7843;SDS011;3967;48.702;9.326;2024-03-22T09:09:10;11.27;;;8.10;;
7843;SDS011;3967;48.702;9.326;2024-03-22T09:11:36;10.60;;;8.47;;
7843;SDS011;3967;48.702;9.326;2024-03-22T09:14:02;15.50;;;8.37;;
7843;SDS011;3967;48.702;9.326;2024-03-22T09:16:28;9.30;;;7.20;;
7843;SDS011;3967;48.702;9.326;2024-03-22T09:18:54;8.53;;;7.63;;
7843;SDS011;3967;48.702;9.326;2024-03-22T09:21:20;12.20;;;8.40;;
7843;SDS011;3967;48.702;9.326;2024-03-22T09:23:45;14.77;;;8.17;;
7843;SDS011;3967;48.702;9.326;2024-03-22T09:26:11;10.27;;;8.37;;
7843;SDS011;3967;48.702;9.326;2024-03-22T09:28:37;10.03;;;7.60;;
7843;SDS011;3967;48.702;9.326;2024-03-22T09:31:04;11.33;;;7.60;;
7843;SDS011;3967;48.702;9.326;2024-03-22T09:33:31;9.07;;;7.30;;
7843;SDS011;3967;48.702;9.326;2024-03-22T09:36:01;8.67;;;7.60;;
7843;SDS011;3967;48.702;9.326;2024-03-22T09:38:27;8.33;;;7.10;;
7843;SDS011;3967;48.702;9.326;2024-03-22T09:40:53;8.23;;;6.80;;
7843;SDS011;3967;48.702;9.326;2024-03-22T09:43:23;8.17;;;5.77;;
7843;SDS011;3967;48.702;9.326;2024-03-22T09:45:50;8.30;;;6.60;;
7843;SDS011;3967;48.702;9.326;2024-03-22T09:48:19;6.50;;;5.27;;
7843;SDS011;3967;48.702;9.326;2024-03-22T09:50:48;8.73;;;5.60;;
7843;SDS011;3967;48.702;9.326;2024-03-22T09:53:18;8.73;;;6.63;;
7843;SDS011;3967;48.702;9.326;2024-03-22T09:55:46;9.20;;;6.43;;
7843;SDS011;3967;48.702;9.326;2024-03-22T09:58:13;8.33;;;6.40;;
7843;SDS011;3967;48.702;9.326;2024-03-22T10:00:40;7.57;;;5.70;;
7843;SDS011;3967;48.702;9.326;2024-03-22T10:03:05;8.27;;;5.97;;
7843;SDS011;3967;48.702;9.326;2024-03-22T10:05:32;6.03;;;4.47;;
7843;SDS011;3967;48.702;9.326;2024-03-22T10:07:58;8.37;;;4.73;;
7843;SDS011;3967;48.702;9.326;2024-03-22T10:10:24;5.33;;;4.20;;
7843;SDS011;3967;48.702;9.326;2024-03-22T10:12:50;4.33;;;3.80;;
7843;SDS011;3967;48.702;9.326;2024-03-22T10:15:18;7.93;;;4.67;;
7843;SDS011;3967;48.702;9.326;2024-03-22T10:17:44;6.00;;;4.20;;
7843;SDS011;3967;48.702;9.326;2024-03-22T10:20:12;6.90;;;4.50;;
7843;SDS011;3967;48.702;9.326;2024-03-22T10:22:42;6.83;;;4.10;;
7843;SDS011;3967;48.702;9.326;2024-03-22T10:25:09;8.47;;;4.67;;
7843;SDS011;3967;48.702;9.326;2024-03-22T10:27:38;7.07;;;4.67;;
7843;SDS011;3967;48.702;9.326;2024-03-22T10:30:06;4.60;;;4.20;;
7843;SDS011;3967;48.702;9.326;2024-03-22T10:32:34;5.10;;;4.27;;
7843;SDS011;3967;48.702;9.326;2024-03-22T10:35:02;6.17;;;3.93;;
7843;SDS011;3967;48.702;9.326;2024-03-22T10:37:35;4.80;;;3.87;;
7843;SDS011;3967;48.702;9.326;2024-03-22T10:40:01;3.60;;;3.17;;
7843;SDS011;3967;48.702;9.326;2024-03-22T10:42:37;5.40;;;3.83;;
7843;SDS011;3967;48.702;9.326;2024-03-22T10:45:05;4.03;;;3.57;;
7843;SDS011;3967;48.702;9.326;2024-03-22T10:47:33;5.80;;;3.70;;
7843;SDS011;3967;48.702;9.326;2024-03-22T10:50:06;3.70;;;3.23;;
7843;SDS011;3967;48.702;9.326;2024-03-22T10:52:54;4.43;;;3.63;;
7843;SDS011;3967;48.702;9.326;2024-03-22T10:55:33;3.63;;;3.33;;
7843;SDS011;3967;48.702;9.326;2024-03-22T10:58:01;8.33;;;3.83;;
7843;SDS011;3967;48.702;9.326;2024-03-22T11:00:28;5.93;;;3.77;;
7843;SDS011;3967;48.702;9.326;2024-03-22T11:02:55;4.40;;;3.47;;
7843;SDS011;3967;48.702;9.326;2024-03-22T11:05:21;5.47;;;3.43;;
7843;SDS011;3967;48.702;9.326;2024-03-22T11:07:47;3.80;;;3.40;;
7843;SDS011;3967;48.702;9.326;2024-03-22T11:10:13;6.90;;;3.60;;
7843;SDS011;3967;48.702;9.326;2024-03-22T11:12:39;3.73;;;3.03;;
7843;SDS011;3967;48.702;9.326;2024-03-22T11:15:06;4.87;;;3.37;;
7843;SDS011;3967;48.702;9.326;2024-03-22T11:17:34;5.13;;;3.43;;
7843;SDS011;3967;48.702;9.326;2024-03-22T11:20:00;8.40;;;3.73;;
7843;SDS011;3967;48.702;9.326;2024-03-22T11:22:26;5.93;;;3.50;;
7843;SDS011;3967;48.702;9.326;2024-03-22T11:24:52;4.60;;;3.23;;
7843;SDS011;3967;48.702;9.326;2024-03-22T11:27:18;4.57;;;3.10;;
7843;SDS011;3967;48.702;9.326;2024-03-22T11:29:46;3.70;;;3.13;;
7843;SDS011;3967;48.702;9.326;2024-03-22T11:32:16;3.63;;;3.30;;
7843;SDS011;3967;48.702;9.326;2024-03-22T11:34:42;3.70;;;3.00;;
7843;SDS011;3967;48.702;9.326;2024-03-22T11:37:09;5.40;;;2.60;;
7843;SDS011;3967;48.702;9.326;2024-03-22T11:39:36;4.03;;;2.57;;
7843;SDS011;3967;48.702;9.326;2024-03-22T11:42:05;4.63;;;3.00;;
7843;SDS011;3967;48.702;9.326;2024-03-22T11:44:33;4.37;;;2.60;;
7843;SDS011;3967;48.702;9.326;2024-03-22T11:47:02;5.20;;;2.80;;
7843;SDS011;3967;48.702;9.326;2024-03-22T11:49:28;4.37;;;3.20;;
7843;SDS011;3967;48.702;9.326;2024-03-22T11:51:55;4.80;;;3.03;;
7843;SDS011;3967;48.702;9.326;2024-03-22T11:54:22;5.40;;;3.47;;
7843;SDS011;3967;48.702;9.326;2024-03-22T11:56:49;5.20;;;3.33;;
7843;SDS011;3967;48.702;9.326;2024-03-22T11:59:15;4.30;;;3.07;;
7843;SDS011;3967;48.702;9.326;2024-03-22T12:01:46;3.90;;;3.17;;
7843;SDS011;3967;48.702;9.326;2024-03-22T12:04:12;5.23;;;3.20;;
7843;SDS011;3967;48.702;9.326;2024-03-22T12:06:46;3.40;;;2.80;;
7843;SDS011;3967;48.702;9.326;2024-03-22T12:09:12;5.93;;;3.57;;
7843;SDS011;3967;48.702;9.326;2024-03-22T12:11:39;3.87;;;2.93;;
7843;SDS011;3967;48.702;9.326;2024-03-22T12:14:06;6.03;;;2.60;;
7843;SDS011;3967;48.702;9.326;2024-03-22T12:16:31;2.47;;;1.70;;
7843;SDS011;3967;48.702;9.326;2024-03-22T12:18:57;3.33;;;2.10;;
7843;SDS011;3967;48.702;9.326;2024-03-22T12:21:24;3.17;;;2.23;;
7843;SDS011;3967;48.702;9.326;2024-03-22T12:23:50;2.67;;;2.40;;
7843;SDS011;3967;48.702;9.326;2024-03-22T12:26:16;4.37;;;2.70;;
7843;SDS011;3967;48.702;9.326;2024-03-22T12:28:42;4.93;;;2.17;;
7843;SDS011;3967;48.702;9.326;2024-03-22T12:31:08;4.07;;;2.30;;
7843;SDS011;3967;48.702;9.326;2024-03-22T12:33:36;3.20;;;2.80;;
7843;SDS011;3967;48.702;9.326;2024-03-22T12:36:02;3.50;;;2.90;;
7843;SDS011;3967;48.702;9.326;2024-03-22T12:38:29;3.90;;;2.60;;
7843;SDS011;3967;48.702;9.326;2024-03-22T12:40:55;3.00;;;2.37;;
7843;SDS011;3967;48.702;9.326;2024-03-22T12:43:21;9.53;;;3.10;;
7843;SDS011;3967;48.702;9.326;2024-03-22T12:45:47;7.63;;;2.90;;
7843;SDS011;3967;48.702;9.326;2024-03-22T12:48:13;7.63;;;2.60;;
7843;SDS011;3967;48.702;9.326;2024-03-22T12:50:39;4.30;;;3.80;;
7843;SDS011;3967;48.702;9.326;2024-03-22T12:53:05;4.17;;;2.63;;
7843;SDS011;3967;48.702;9.326;2024-03-22T12:55:30;3.20;;;2.57;;
7843;SDS011;3967;48.702;9.326;2024-03-22T12:57:57;3.97;;;2.90;;
7843;SDS011;3967;48.702;9.326;2024-03-22T13:00:23;3.03;;;2.57;;
7843;SDS011;3967;48.702;9.326;2024-03-22T13:02:49;3.63;;;2.50;;
7843;SDS011;3967;48.702;9.326;2024-03-22T13:05:15;4.50;;;2.97;;
7843;SDS011;3967;48.702;9.326;2024-03-22T13:07:41;3.73;;;2.50;;
7843;SDS011;3967;48.702;9.326;2024-03-22T13:10:07;6.60;;;2.50;;
7843;SDS011;3967;48.702;9.326;2024-03-22T13:12:34;2.90;;;2.40;;
7843;SDS011;3967;48.702;9.326;2024-03-22T13:15:00;3.57;;;2.50;;
7843;SDS011;3967;48.702;9.326;2024-03-22T13:17:26;4.30;;;2.63;;
7843;SDS011;3967;48.702;9.326;2024-03-22T13:19:52;4.33;;;2.57;;
7843;SDS011;3967;48.702;9.326;2024-03-22T13:22:18;8.20;;;2.50;;
7843;SDS011;3967;48.702;9.326;2024-03-22T13:24:47;2.73;;;2.33;;
7843;SDS011;3967;48.702;9.326;2024-03-22T13:27:14;5.07;;;2.37;;
7843;SDS011;3967;48.702;9.326;2024-03-22T13:29:40;3.07;;;2.47;;
7843;SDS011;3967;48.702;9.326;2024-03-22T13:32:06;3.40;;;2.40;;
7843;SDS011;3967;48.702;9.326;2024-03-22T13:34:35;2.47;;;2.00;;
7843;SDS011;3967;48.702;9.326;2024-03-22T13:37:01;3.97;;;2.23;;
7843;SDS011;3967;48.702;9.326;2024-03-22T13:39:27;4.13;;;2.23;;
7843;SDS011;3967;48.702;9.326;2024-03-22T13:41:55;3.90;;;2.07;;
7843;SDS011;3967;48.702;9.326;2024-03-22T13:44:21;3.40;;;2.10;;
7843;SDS011;3967;48.702;9.326;2024-03-22T13:46:48;3.90;;;2.20;;
7843;SDS011;3967;48.702;9.326;2024-03-22T13:49:18;4.73;;;2.73;;
7843;SDS011;3967;48.702;9.326;2024-03-22T13:51:49;3.33;;;2.63;;
7843;SDS011;3967;48.702;9.326;2024-03-22T13:54:15;3.63;;;2.37;;
7843;SDS011;3967;48.702;9.326;2024-03-22T13:56:42;3.63;;;2.30;;
7843;SDS011;3967;48.702;9.326;2024-03-22T13:59:07;3.50;;;1.83;;
7843;SDS011;3967;48.702;9.326;2024-03-22T14:01:37;4.73;;;2.17;;
7843;SDS011;3967;48.702;9.326;2024-03-22T14:04:03;4.00;;;2.30;;
7843;SDS011;3967;48.702;9.326;2024-03-22T14:06:32;4.27;;;2.67;;
7843;SDS011;3967;48.702;9.326;2024-03-22T14:08:58;3.10;;;2.00;;
7843;SDS011;3967;48.702;9.326;2024-03-22T14:11:28;3.33;;;2.60;;
7843;SDS011;3967;48.702;9.326;2024-03-22T14:13:56;4.20;;;2.20;;
7843;SDS011;3967;48.702;9.326;2024-03-22T14:16:22;4.30;;;1.90;;
7843;SDS011;3967;48.702;9.326;2024-03-22T14:18:48;2.03;;;1.80;;
7843;SDS011;3967;48.702;9.326;2024-03-22T14:21:15;2.30;;;2.00;;
7843;SDS011;3967;48.702;9.326;2024-03-22T14:23:50;1.87;;;1.70;;
7843;SDS011;3967;48.702;9.326;2024-03-22T14:26:16;3.03;;;2.07;;
7843;SDS011;3967;48.702;9.326;2024-03-22T14:28:43;2.40;;;1.80;;
7843;SDS011;3967;48.702;9.326;2024-03-22T14:31:12;2.00;;;1.33;;
7843;SDS011;3967;48.702;9.326;2024-03-22T14:33:38;2.20;;;1.60;;
7843;SDS011;3967;48.702;9.326;2024-03-22T14:36:05;1.60;;;1.50;;
7843;SDS011;3967;48.702;9.326;2024-03-22T14:38:32;3.93;;;1.60;;
7843;SDS011;3967;48.702;9.326;2024-03-22T14:40:58;2.97;;;1.40;;
7843;SDS011;3967;48.702;9.326;2024-03-22T14:43:25;2.77;;;1.80;;
7843;SDS011;3967;48.702;9.326;2024-03-22T14:45:54;4.27;;;1.50;;
7843;SDS011;3967;48.702;9.326;2024-03-22T14:48:21;2.77;;;1.47;;
7843;SDS011;3967;48.702;9.326;2024-03-22T14:50:47;1.67;;;1.57;;
7843;SDS011;3967;48.702;9.326;2024-03-22T14:53:17;2.97;;;2.47;;
7843;SDS011;3967;48.702;9.326;2024-03-22T14:55:56;4.90;;;2.30;;